Glasgow, Montana
Current Conditions -  °F | °C
As of 11:53 AM on Tuesday 21 Oct 2014 (Local Time) from KGGW Reporting Station
Clear Clear  
Wind Chill: 64°   Ceiling: Unl
Heat Index: 64°   Visibility: 10mi
Dew Point: 44°   Wind: 14mph
Humidity: 48%   Direction: 110°ESE
Pressure: 29.61"   Gusts: NA
Location:  48.2°N, 106.64°W
Report Text: KGGW 211753Z AUTO 11012KT 10SM CLR 18/07 A2961 RMK AO2 SLP026 T01780067 10178 20072 58016
Loading
Personal Weather Stations






























Interactive Weather Map
Tropical Storm Tracking
New forecast layout! Learn more

10-Day Weather Forecast

Advertisements
Track Severe Weather on mobile